createdAt,value
2018-01-25T00:02:00.297Z,2.37
2018-01-25T00:04:28.640Z,2.40
2018-01-25T00:06:56.345Z,2.03
2018-01-25T00:09:24.925Z,2.33
2018-01-25T00:11:53.253Z,2.17
2018-01-25T00:14:20.817Z,2.27
2018-01-25T00:16:48.382Z,1.53
2018-01-25T00:19:15.983Z,2.13
2018-01-25T00:21:43.582Z,2.43
2018-01-25T00:24:11.196Z,1.67
2018-01-25T00:26:38.773Z,2.23
2018-01-25T00:29:07.087Z,1.33
2018-01-25T00:31:34.641Z,1.50
2018-01-25T00:34:02.945Z,1.70
2018-01-25T00:36:30.522Z,1.73
2018-01-25T00:38:58.078Z,1.60
2018-01-25T00:41:25.634Z,1.53
2018-01-25T00:43:53.193Z,2.33
2018-01-25T00:46:20.770Z,2.30
2018-01-25T00:48:48.330Z,2.47
2018-01-25T00:51:15.948Z,1.70
2018-01-25T00:53:43.536Z,3.10
2018-01-25T00:56:11.092Z,2.83
2018-01-25T00:58:39.178Z,1.87
2018-01-25T01:01:06.717Z,2.13
2018-01-25T01:03:34.285Z,1.80
2018-01-25T01:06:01.846Z,3.83
2018-01-25T01:08:30.320Z,1.40
2018-01-25T01:10:57.886Z,2.70
2018-01-25T01:13:25.465Z,1.70
2018-01-25T01:15:53.032Z,1.77
2018-01-25T01:18:20.596Z,1.37
2018-01-25T01:20:48.161Z,3.80
2018-01-25T01:23:16.710Z,1.70
2018-01-25T01:25:44.254Z,2.03
2018-01-25T01:28:11.921Z,2.53
2018-01-25T01:30:39.485Z,3.03
2018-01-25T01:33:07.037Z,1.87
2018-01-25T01:35:34.573Z,3.90
2018-01-25T01:38:02.880Z,2.80
2018-01-25T01:40:30.438Z,3.10
2018-01-25T01:42:58.817Z,1.20
2018-01-25T01:45:27.138Z,1.53
2018-01-25T01:47:54.716Z,2.53
2018-01-25T01:50:22.321Z,1.00
2018-01-25T01:52:49.876Z,1.43
2018-01-25T01:55:17.511Z,1.30
2018-01-25T01:57:45.116Z,1.07
2018-01-25T02:00:12.690Z,1.27
2018-01-25T02:02:40.234Z,2.50
2018-01-25T02:05:07.797Z,1.53
2018-01-25T02:07:35.365Z,3.83
2018-01-25T02:10:02.918Z,1.60
2018-01-25T02:12:30.637Z,1.53
2018-01-25T02:14:58.196Z,1.97
2018-01-25T02:17:25.757Z,2.10
2018-01-25T02:19:53.488Z,1.43
2018-01-25T02:22:21.033Z,3.33
2018-01-25T02:24:49.633Z,1.37
2018-01-25T02:27:17.234Z,2.07
2018-01-25T02:29:44.811Z,1.70
2018-01-25T02:32:12.349Z,1.30
2018-01-25T02:34:39.924Z,2.23
2018-01-25T02:37:07.505Z,3.53
2018-01-25T02:39:35.831Z,2.40
2018-01-25T02:42:03.439Z,2.97
2018-01-25T02:44:31.009Z,2.47
2018-01-25T02:46:59.328Z,2.50
2018-01-25T02:49:26.887Z,4.37
2018-01-25T02:51:54.438Z,6.70
2018-01-25T02:54:21.990Z,1.40
2018-01-25T02:56:50.430Z,4.47
2018-01-25T02:59:17.992Z,1.07
2018-01-25T03:01:45.546Z,4.23
2018-01-25T03:04:13.098Z,2.13
2018-01-25T03:06:40.658Z,1.63
2018-01-25T03:09:08.205Z,1.20
2018-01-25T03:11:35.778Z,1.00
2018-01-25T03:14:03.351Z,2.00
2018-01-25T03:16:30.921Z,0.90
2018-01-25T03:18:58.462Z,1.30
2018-01-25T03:21:26.177Z,1.00
2018-01-25T03:23:54.755Z,1.40
2018-01-25T03:26:23.294Z,1.73
2018-01-25T03:28:50.868Z,2.00
2018-01-25T03:31:19.224Z,1.10
2018-01-25T03:33:46.783Z,1.10
2018-01-25T03:36:14.357Z,1.60
2018-01-25T03:38:41.917Z,1.52
2018-01-25T03:41:09.473Z,0.80
2018-01-25T03:43:37.033Z,2.08
2018-01-25T03:46:04.664Z,1.03
2018-01-25T03:48:33.744Z,3.33
2018-01-25T03:51:01.307Z,2.30
2018-01-25T03:53:28.869Z,1.00
2018-01-25T03:55:57.183Z,4.90
2018-01-25T03:58:24.964Z,3.75
2018-01-25T04:00:52.524Z,1.75
2018-01-25T04:03:20.089Z,2.83
2018-01-25T04:05:47.638Z,1.80
2018-01-25T04:08:15.208Z,1.75
2018-01-25T04:10:42.747Z,2.03
2018-01-25T04:13:10.317Z,1.13
2018-01-25T04:15:37.885Z,1.77
2018-01-25T04:18:05.438Z,2.65
2018-01-25T04:20:32.994Z,2.40
2018-01-25T04:23:00.684Z,2.55
2018-01-25T04:25:28.228Z,1.25
2018-01-25T04:27:55.774Z,4.20
2018-01-25T04:30:24.120Z,1.40
2018-01-25T04:32:51.765Z,1.77
2018-01-25T04:35:19.369Z,1.37
2018-01-25T04:37:47.723Z,8.18
2018-01-25T04:40:15.289Z,5.47
2018-01-25T04:42:42.836Z,3.45
2018-01-25T04:45:10.400Z,1.77
2018-01-25T04:47:37.969Z,6.43
2018-01-25T04:50:05.509Z,4.25
2018-01-25T04:52:33.067Z,4.50
2018-01-25T04:55:00.645Z,2.28
2018-01-25T04:57:28.217Z,2.45
2018-01-25T04:59:56.581Z,2.80
2018-01-25T05:02:25.118Z,2.28
2018-01-25T05:04:53.474Z,4.87
2018-01-25T05:07:21.237Z,4.60
2018-01-25T05:09:48.793Z,3.53
2018-01-25T05:12:16.340Z,3.75
2018-01-25T05:14:43.901Z,3.55
2018-01-25T05:17:26.325Z,3.00
2018-01-25T05:19:53.893Z,6.70
2018-01-25T05:22:21.453Z,4.18
2018-01-25T05:24:49.044Z,2.53
2018-01-25T05:27:17.402Z,4.47
2018-01-25T05:29:45.777Z,10.82
2018-01-25T05:32:13.345Z,6.97
2018-01-25T05:34:41.746Z,6.60
2018-01-25T05:37:10.130Z,6.62
2018-01-25T05:39:37.688Z,4.35
2018-01-25T05:42:06.039Z,6.72
2018-01-25T05:44:33.640Z,2.62
2018-01-25T05:47:01.257Z,3.62
2018-01-25T05:49:28.845Z,5.87
2018-01-25T05:51:56.398Z,4.50
2018-01-25T05:54:23.966Z,2.92
2018-01-25T05:56:51.521Z,2.80
2018-01-25T05:59:19.140Z,3.53
2018-01-25T06:01:46.702Z,2.72
2018-01-25T06:04:14.263Z,2.62
2018-01-25T06:06:42.022Z,4.53
2018-01-25T06:09:09.595Z,3.67
2018-01-25T06:11:37.206Z,5.72
2018-01-25T06:14:04.858Z,4.68
2018-01-25T06:16:33.200Z,7.65
2018-01-25T06:19:00.766Z,7.93
2018-01-25T06:21:29.092Z,5.30
2018-01-25T06:23:56.707Z,5.15
2018-01-25T06:26:24.265Z,3.40
2018-01-25T06:28:51.841Z,3.22
2018-01-25T06:31:19.409Z,4.25
2018-01-25T06:33:47.002Z,8.93
2018-01-25T06:36:14.562Z,6.10
2018-01-25T06:38:42.118Z,6.62
2018-01-25T06:41:09.785Z,11.52
2018-01-25T06:43:37.367Z,11.05
2018-01-25T06:46:05.716Z,6.35
2018-01-25T06:48:33.277Z,10.52
2018-01-25T06:51:00.841Z,9.88
2018-01-25T06:53:29.171Z,4.10
2018-01-25T06:55:56.721Z,10.15
2018-01-25T06:58:25.066Z,11.20
2018-01-25T07:00:53.572Z,5.00
2018-01-25T07:03:22.178Z,10.10
2018-01-25T07:05:49.861Z,7.50
2018-01-25T07:08:18.153Z,8.63
2018-01-25T07:10:45.857Z,6.97
2018-01-25T07:13:13.405Z,9.25
2018-01-25T07:15:40.960Z,7.50
2018-01-25T07:18:08.533Z,8.50
2018-01-25T07:20:36.881Z,9.75
2018-01-25T07:23:05.352Z,9.25
2018-01-25T07:25:32.925Z,10.27
2018-01-25T07:28:00.494Z,9.40
2018-01-25T07:30:28.052Z,12.00
2018-01-25T07:32:55.599Z,12.07
2018-01-25T07:35:23.193Z,15.25
2018-01-25T07:37:51.288Z,12.40
2018-01-25T07:40:18.860Z,11.00
2018-01-25T07:42:47.192Z,17.20
2018-01-25T07:45:14.781Z,11.45
2018-01-25T07:47:42.930Z,13.70
2018-01-25T07:50:10.480Z,16.10
2018-01-25T07:52:38.046Z,12.45
2018-01-25T07:55:05.619Z,18.35
2018-01-25T07:57:38.823Z,14.45
2018-01-25T08:00:07.237Z,14.70
2018-01-25T08:02:35.596Z,14.57
2018-01-25T08:05:03.222Z,14.68
2018-01-25T08:07:30.778Z,21.37
2018-01-25T08:09:58.489Z,15.88
2018-01-25T08:12:26.061Z,16.00
2018-01-25T08:14:53.625Z,15.43
2018-01-25T08:17:21.965Z,14.98
2018-01-25T08:19:49.579Z,15.67
2018-01-25T08:22:17.914Z,14.27
2018-01-25T08:24:45.470Z,13.23
2018-01-25T08:27:13.023Z,17.80
2018-01-25T08:29:40.653Z,14.77
2018-01-25T08:32:08.162Z,16.73
2018-01-25T08:34:35.726Z,15.40
2018-01-25T08:37:03.301Z,15.00
2018-01-25T08:39:30.866Z,17.03
2018-01-25T08:41:58.432Z,12.00
2018-01-25T08:44:26.133Z,21.27
2018-01-25T08:46:53.763Z,16.37
2018-01-25T08:49:21.437Z,13.45
2018-01-25T08:51:49.201Z,13.60
2018-01-25T08:54:16.785Z,15.10
2018-01-25T08:56:45.099Z,12.70
2018-01-25T08:59:12.660Z,11.80
2018-01-25T09:01:40.233Z,14.70
2018-01-25T09:04:08.602Z,17.00
2018-01-25T09:06:36.186Z,19.77
2018-01-25T09:09:03.729Z,13.68
2018-01-25T09:11:31.441Z,13.27
2018-01-25T09:13:59.013Z,14.70
2018-01-25T09:16:27.432Z,14.30
2018-01-25T09:18:55.016Z,13.27
2018-01-25T09:21:22.584Z,17.13
2018-01-25T09:23:50.149Z,13.33
2018-01-25T09:26:17.760Z,19.00
2018-01-25T09:28:45.312Z,15.43
2018-01-25T09:31:13.674Z,14.83
2018-01-25T09:33:41.237Z,15.20
2018-01-25T09:36:09.589Z,13.57
2018-01-25T09:38:37.137Z,15.50
2018-01-25T09:41:04.699Z,16.90
2018-01-25T09:43:32.278Z,15.27
2018-01-25T09:45:59.837Z,14.80
2018-01-25T09:48:28.221Z,17.70
2018-01-25T09:50:55.823Z,15.67
2018-01-25T09:53:24.176Z,15.63
2018-01-25T09:55:51.804Z,15.00
2018-01-25T09:58:19.377Z,12.27
2018-01-25T10:00:46.932Z,10.90
2018-01-25T10:03:14.526Z,19.40
2018-01-25T10:05:42.097Z,11.53
2018-01-25T10:08:10.425Z,16.00
2018-01-25T10:10:37.981Z,14.07
2018-01-25T10:13:05.542Z,11.87
2018-01-25T10:15:33.104Z,10.90
2018-01-25T10:18:00.669Z,13.17
2018-01-25T10:20:28.234Z,11.43
2018-01-25T10:22:55.816Z,12.90
2018-01-25T10:25:23.365Z,10.10
2018-01-25T10:27:50.908Z,16.97
2018-01-25T10:30:18.453Z,10.77
2018-01-25T10:32:46.085Z,16.17
2018-01-25T10:35:13.717Z,9.23
2018-01-25T10:37:41.270Z,10.97
2018-01-25T10:40:08.825Z,10.37
2018-01-25T10:42:37.381Z,10.20
2018-01-25T10:45:05.733Z,8.87
2018-01-25T10:47:33.298Z,8.17
2018-01-25T10:50:00.881Z,9.13
2018-01-25T10:52:29.200Z,7.97
2018-01-25T10:54:56.753Z,11.10
2018-01-25T10:57:24.372Z,14.23
2018-01-25T10:59:52.699Z,10.43
2018-01-25T11:02:21.143Z,12.40
2018-01-25T11:04:49.465Z,10.70
2018-01-25T11:07:17.024Z,4.13
2018-01-25T11:09:44.586Z,6.70
2018-01-25T11:12:12.952Z,7.87
2018-01-25T11:14:40.519Z,9.10
2018-01-25T11:17:08.084Z,8.40
2018-01-25T11:19:35.639Z,15.00
2018-01-25T11:22:03.216Z,11.30
2018-01-25T11:24:30.914Z,10.17
2018-01-25T11:26:58.584Z,12.23
2018-01-25T11:29:26.181Z,7.23
2018-01-25T11:31:53.752Z,14.70
2018-01-25T11:34:21.292Z,6.97
2018-01-25T11:36:49.645Z,4.87
2018-01-25T11:39:17.206Z,8.43
2018-01-25T11:41:45.545Z,8.87
2018-01-25T11:44:13.229Z,9.40
2018-01-25T11:46:40.776Z,8.53
2018-01-25T11:49:08.358Z,11.70
2018-01-25T11:51:35.927Z,16.40
2018-01-25T11:54:04.262Z,11.17
2018-01-25T11:56:32.717Z,10.53
2018-01-25T11:59:00.303Z,8.80
2018-01-25T12:01:27.860Z,8.03
2018-01-25T12:03:55.454Z,10.23
2018-01-25T12:06:23.778Z,13.77
2018-01-25T12:08:51.652Z,5.60
2018-01-25T12:11:19.005Z,5.80
2018-01-25T12:13:46.572Z,6.00
2018-01-25T12:16:14.137Z,5.73
2018-01-25T12:18:41.715Z,9.20
2018-01-25T12:21:09.312Z,7.33
2018-01-25T12:23:37.654Z,7.20
2018-01-25T12:26:05.301Z,6.77
2018-01-25T12:28:33.074Z,6.03
2018-01-25T12:31:00.642Z,7.40
2018-01-25T12:33:28.226Z,10.13
2018-01-25T12:35:55.782Z,4.37
2018-01-25T12:38:23.339Z,9.30
2018-01-25T12:40:50.896Z,5.50
2018-01-25T12:43:18.490Z,8.40
2018-01-25T12:45:46.808Z,6.20
2018-01-25T12:48:14.400Z,9.17
2018-01-25T12:50:41.946Z,9.07
2018-01-25T12:53:09.537Z,6.40
2018-01-25T12:55:37.824Z,10.13
2018-01-25T12:58:05.409Z,6.53
2018-01-25T13:00:32.983Z,13.00
2018-01-25T13:03:00.573Z,7.87
2018-01-25T13:05:28.132Z,10.60
2018-01-25T13:07:55.742Z,4.30
2018-01-25T13:10:24.075Z,4.90
2018-01-25T13:12:51.646Z,8.60
2018-01-25T13:15:19.225Z,3.73
2018-01-25T13:17:46.766Z,6.50
2018-01-25T13:20:14.588Z,6.93
2018-01-25T13:22:42.899Z,7.67
2018-01-25T13:25:10.500Z,13.10
2018-01-25T13:27:38.049Z,5.00
2018-01-25T13:30:06.475Z,10.30
2018-01-25T13:32:34.032Z,9.93
2018-01-25T13:35:02.357Z,12.33
2018-01-25T13:37:29.930Z,8.43
2018-01-25T13:39:57.491Z,6.47
2018-01-25T13:42:25.807Z,8.50
2018-01-25T13:44:54.133Z,10.23
2018-01-25T13:47:21.681Z,4.53
2018-01-25T13:49:49.368Z,11.03
2018-01-25T13:54:56.117Z,8.23
2018-01-25T13:57:24.448Z,4.30
2018-01-25T13:59:52.099Z,8.70
2018-01-25T14:02:19.658Z,10.30
2018-01-25T14:04:47.322Z,25.00
2018-01-25T14:07:14.887Z,6.57
2018-01-25T14:09:42.441Z,7.00
2018-01-25T14:12:09.985Z,7.07
2018-01-25T14:14:37.545Z,5.20
2018-01-25T14:17:05.124Z,5.87
2018-01-25T14:19:32.681Z,5.30
2018-01-25T14:22:00.240Z,4.93
2018-01-25T14:24:27.974Z,9.40
2018-01-25T14:26:56.328Z,8.97
2018-01-25T14:29:23.908Z,9.57
2018-01-25T14:31:52.187Z,8.50
2018-01-25T14:34:19.987Z,5.80
2018-01-25T14:36:47.532Z,11.30
2018-01-25T14:39:15.099Z,10.37
2018-01-25T14:41:42.780Z,9.10
2018-01-25T14:44:10.349Z,5.53
2018-01-25T14:46:37.910Z,5.93
2018-01-25T14:49:05.469Z,10.13
2018-01-25T14:51:33.407Z,10.03
2018-01-25T14:54:01.047Z,5.33
2018-01-25T14:56:28.607Z,3.70
2018-01-25T14:58:56.265Z,5.00
2018-01-25T15:01:23.834Z,4.47
2018-01-25T15:03:51.426Z,6.70
2018-01-25T15:06:19.765Z,4.63
2018-01-25T15:08:47.475Z,9.97
2018-01-25T15:11:15.817Z,4.53
2018-01-25T15:13:43.538Z,6.73
2018-01-25T15:16:11.128Z,5.77
2018-01-25T15:18:38.693Z,6.13
2018-01-25T15:21:06.244Z,7.53
2018-01-25T15:23:33.830Z,5.90
2018-01-25T15:26:06.210Z,6.83
2018-01-25T15:28:33.772Z,7.53
2018-01-25T15:31:01.341Z,3.20
2018-01-25T15:33:28.969Z,9.33
2018-01-25T15:35:57.284Z,5.07
2018-01-25T15:38:24.825Z,8.10
2018-01-25T15:40:52.389Z,4.47
2018-01-25T15:43:19.957Z,6.50
2018-01-25T15:45:47.535Z,7.47
2018-01-25T15:48:15.109Z,3.77
2018-01-25T15:50:42.758Z,9.80
2018-01-25T15:53:10.346Z,10.03
2018-01-25T15:55:38.028Z,8.77
2018-01-25T15:58:05.605Z,10.83
2018-01-25T16:00:33.167Z,7.00
2018-01-25T16:03:00.748Z,7.63
2018-01-25T16:05:28.353Z,7.87
2018-01-25T16:07:55.877Z,8.47
2018-01-25T16:10:23.595Z,5.33
2018-01-25T16:12:51.181Z,5.90
2018-01-25T16:15:18.769Z,6.30
2018-01-25T16:17:46.348Z,10.87
2018-01-25T16:20:13.949Z,5.53
2018-01-25T16:22:42.105Z,12.00
2018-01-25T16:25:10.477Z,6.00
2018-01-25T16:27:38.042Z,11.00
2018-01-25T16:30:06.379Z,8.50
2018-01-25T16:32:33.925Z,6.00
2018-01-25T16:35:01.614Z,6.93
2018-01-25T16:37:29.193Z,10.38
2018-01-25T16:39:56.752Z,5.22
2018-01-25T16:42:24.354Z,7.87
2018-01-25T16:44:52.034Z,7.37
2018-01-25T16:47:19.627Z,7.73
2018-01-25T16:49:47.182Z,6.53
2018-01-25T16:52:14.727Z,8.80
2018-01-25T16:54:42.469Z,11.50
2018-01-25T16:57:10.130Z,8.90
2018-01-25T16:59:37.701Z,6.90
2018-01-25T17:02:05.296Z,10.90
2018-01-25T17:04:32.840Z,6.70
2018-01-25T17:07:00.431Z,11.07
2018-01-25T17:09:28.038Z,11.93
2018-01-25T17:11:55.613Z,7.80
2018-01-25T17:14:23.270Z,8.00
2018-01-25T17:16:50.826Z,8.10
2018-01-25T17:19:18.393Z,13.85
2018-01-25T17:21:46.346Z,11.37
2018-01-25T17:24:14.158Z,10.97
2018-01-25T17:26:42.470Z,10.73
2018-01-25T17:29:10.052Z,10.37
2018-01-25T17:31:37.631Z,14.90
2018-01-25T17:34:05.226Z,12.43
2018-01-25T17:36:33.645Z,10.50
2018-01-25T17:39:01.233Z,14.80
2018-01-25T17:41:28.782Z,18.33
2018-01-25T17:43:56.330Z,9.60
2018-01-25T17:46:23.881Z,11.40
2018-01-25T17:48:51.429Z,9.73
2018-01-25T17:51:19.036Z,12.50
2018-01-25T17:53:46.633Z,8.67
2018-01-25T17:56:14.952Z,6.93
2018-01-25T17:58:42.497Z,11.27
2018-01-25T18:01:10.065Z,11.83
2018-01-25T18:03:37.685Z,25.30
2018-01-25T18:06:05.219Z,8.23
2018-01-25T18:08:32.797Z,14.73
2018-01-25T18:11:00.912Z,15.52
2018-01-25T18:13:28.553Z,12.13
2018-01-25T18:15:57.182Z,11.63
2018-01-25T18:18:24.753Z,11.23
2018-01-25T18:20:52.354Z,9.70
2018-01-25T18:23:20.887Z,10.20
2018-01-25T18:25:48.566Z,9.52
2018-01-25T18:28:16.188Z,9.95
2018-01-25T18:30:43.781Z,14.10
2018-01-25T18:33:11.319Z,15.27
2018-01-25T18:35:39.022Z,12.95
2018-01-25T18:38:06.643Z,12.70
2018-01-25T18:40:34.234Z,11.88
2018-01-25T18:43:01.807Z,12.37
2018-01-25T18:45:29.366Z,10.85
2018-01-25T18:47:56.919Z,8.02
2018-01-25T18:50:24.482Z,10.85
2018-01-25T18:52:52.059Z,7.32
2018-01-25T18:55:19.617Z,11.55
2018-01-25T18:57:48.230Z,8.38
2018-01-25T19:00:15.786Z,9.82
2018-01-25T19:02:43.347Z,7.50
2018-01-25T19:05:11.015Z,7.78
2018-01-25T19:07:38.597Z,8.82
2018-01-25T19:10:07.155Z,7.55
2018-01-25T19:12:34.719Z,10.35
2018-01-25T19:15:02.451Z,16.53
2018-01-25T19:17:30.074Z,12.30
2018-01-25T19:19:58.422Z,11.63
2018-01-25T19:22:26.755Z,9.60
2018-01-25T19:24:54.323Z,11.77
2018-01-25T19:27:22.838Z,8.20
2018-01-25T19:29:50.401Z,18.70
2018-01-25T19:32:18.004Z,10.60
2018-01-25T19:34:46.345Z,7.43
2018-01-25T19:37:14.865Z,12.55
2018-01-25T19:39:44.050Z,6.50
2018-01-25T19:42:11.632Z,8.95
2018-01-25T19:44:40.071Z,8.00
2018-01-25T19:47:07.676Z,8.57
2018-01-25T19:49:36.041Z,11.70
2018-01-25T19:52:03.777Z,9.38
2018-01-25T19:54:31.617Z,9.40
2018-01-25T19:56:59.817Z,9.05
2018-01-25T19:59:27.467Z,9.32
2018-01-25T20:01:55.157Z,10.55
2018-01-25T20:04:23.101Z,14.52
2018-01-25T20:06:51.077Z,11.18
2018-01-25T20:09:18.698Z,12.80
2018-01-25T20:11:47.053Z,13.68
2018-01-25T20:14:14.624Z,11.77
2018-01-25T20:16:42.217Z,9.80
2018-01-25T20:19:09.803Z,15.50
2018-01-25T20:21:38.221Z,13.88
2018-01-25T20:24:06.626Z,13.88
2018-01-25T20:26:34.216Z,8.65
2018-01-25T20:29:02.493Z,12.27
2018-01-25T20:31:30.252Z,7.82
2018-01-25T20:33:57.938Z,10.57
2018-01-25T20:36:25.548Z,17.50
2018-01-25T20:38:53.164Z,10.85
2018-01-25T20:41:20.781Z,9.50
2018-01-25T20:43:49.118Z,7.62
2018-01-25T20:46:16.866Z,13.27
2018-01-25T20:48:44.841Z,13.95
2018-01-25T20:51:12.892Z,15.75
2018-01-25T20:53:42.368Z,13.50
2018-01-25T20:56:09.996Z,9.27
2018-01-25T20:58:37.646Z,9.77
2018-01-25T21:01:05.620Z,15.52
2018-01-25T21:03:33.597Z,15.57
2018-01-25T21:06:01.400Z,12.75
2018-01-25T21:08:28.983Z,15.30
2018-01-25T21:10:57.424Z,17.85
2018-01-25T21:13:25.045Z,12.68
2018-01-25T21:15:52.639Z,15.30
2018-01-25T21:18:20.229Z,16.27
2018-01-25T21:20:47.833Z,13.85
2018-01-25T21:23:17.068Z,14.18
2018-01-25T21:25:44.635Z,14.85
2018-01-25T21:28:12.266Z,13.68
2018-01-25T21:30:39.911Z,16.67
2018-01-25T21:33:07.516Z,21.20
2018-01-25T21:35:35.972Z,13.57
2018-01-25T21:38:03.543Z,15.75
2018-01-25T21:40:31.137Z,11.55
2018-01-25T21:42:58.740Z,13.30
2018-01-25T21:45:27.072Z,13.77
2018-01-25T21:47:54.652Z,13.85
2018-01-25T21:50:22.222Z,12.35
2018-01-25T21:52:49.794Z,16.37
2018-01-25T21:55:17.357Z,13.90
2018-01-25T21:57:45.097Z,11.18
2018-01-25T22:00:12.668Z,10.98
2018-01-25T22:02:40.238Z,11.20
2018-01-25T22:05:07.792Z,17.60
2018-01-25T22:07:35.374Z,11.65
2018-01-25T22:10:03.137Z,12.10
2018-01-25T22:12:30.718Z,11.63
2018-01-25T22:14:58.330Z,20.10
2018-01-25T22:17:25.896Z,17.35
2018-01-25T22:19:53.457Z,10.43
2018-01-25T22:22:21.056Z,17.33
2018-01-25T22:24:48.645Z,17.80
2018-01-25T22:27:16.232Z,15.38
2018-01-25T22:29:43.794Z,13.90
2018-01-25T22:32:11.405Z,13.50
2018-01-25T22:34:39.017Z,13.60
2018-01-25T22:37:06.563Z,13.68
2018-01-25T22:39:34.136Z,9.40
2018-01-25T22:42:01.734Z,9.25
2018-01-25T22:44:29.284Z,12.10
2018-01-25T22:46:57.614Z,10.95
2018-01-25T22:49:25.198Z,9.38
2018-01-25T22:51:52.740Z,13.82
2018-01-25T22:54:20.309Z,9.82
2018-01-25T22:56:47.883Z,14.40
2018-01-25T22:59:15.590Z,8.32
